Nybakken — LG4198 — position and weather

sailwx.info

Track history (hours):
 
Tides and Currents Weather Stations Pressure Air Temp Water Temp Dewpoint Dewpoint Depression Visibility Wind Speed Wind Dir Waves Ship Positions

Nybakken

Last reported at 2017-Oct-20 15:59 UTC. Time now 2017-Oct-20 16:13 UTC.
Position N 70°59' E 026°02'.

Length 9 m.

Type: Fishing. MMSI: 257305340.

Date/timePositionNaut miles runAvg speedWind from/ knotsBaromVisibWave heightAir tempDewpointWater temp
2017-Oct-20 15:59N 70°59' E 026°02'2 4.8
2017-Oct-20 15:30N 70°57' E 025°57'5 9.0
2017-Oct-20 15:00N 70°56' E 025°44'4 8.8
2017-Oct-20 14:30N 70°56' E 025°31'9 8.9
2017-Oct-20 13:30N 71°03' E 025°13'3 5.5
2017-Oct-20 12:59N 71°06' E 025°12'2 3.6
2017-Oct-20 12:29N 71°07' E 025°12'0 0.6
2017-Oct-20 12:00N 71°08' E 025°11'0 0.4
2017-Oct-20 11:30N 71°08' E 025°10'0 0.7
2017-Oct-20 11:00N 71°07' E 025°10'0 0.8
2017-Oct-20 10:30N 71°07' E 025°10'0 1.0
2017-Oct-20 10:00N 71°06' E 025°10'0 0.8
2017-Oct-20 09:30N 71°06' E 025°10'0 0.7
2017-Oct-20 08:59N 71°06' E 025°09'0 1.0
2017-Oct-20 08:30N 71°05' E 025°08'0 0.9
2017-Oct-20 08:00N 71°05' E 025°08'0 0.6
2017-Oct-20 07:30N 71°05' E 025°08'0 0.9
2017-Oct-20 07:00N 71°04' E 025°07'0 0.9
2017-Oct-20 06:30N 71°04' E 025°07'1 1.1
2017-Oct-20 06:00N 71°04' E 025°07'2 3.5
2017-Oct-20 05:30N 71°05' E 025°12'1 1.1
2017-Oct-20 04:59N 71°05' E 025°14'0 0.6
2017-Oct-20 04:30N 71°05' E 025°13'0 0.7
2017-Oct-20 03:58N 71°05' E 025°13'0 0.7
2017-Oct-20 03:30N 71°06' E 025°12'0 0.7
2017-Oct-20 03:00N 71°06' E 025°11'0 0.7
2017-Oct-20 02:29N 71°06' E 025°11'0 0.7
2017-Oct-20 02:00N 71°06' E 025°10'1 2.6
2017-Oct-20 01:30N 71°08' E 025°11'0 0.9
2017-Oct-20 01:00N 71°08' E 025°11'0 0.8
2017-Oct-20 00:30N 71°09' E 025°11'0 0.6
2017-Oct-20 00:00N 71°09' E 025°11'0 0.7
2017-Oct-19 23:29N 71°09' E 025°11'0 0.9
2017-Oct-19 23:00N 71°10' E 025°12'0 0.7
2017-Oct-19 22:29N 71°10' E 025°11'1 1.8
2017-Oct-19 21:59N 71°09' E 025°10'0 0.7
2017-Oct-19 21:29N 71°09' E 025°09'1 1.3
2017-Oct-19 20:59N 71°09' E 025°10'0 0.6
2017-Oct-19 20:29N 71°10' E 025°11'2 4.2
2017-Oct-19 19:59N 71°08' E 025°10'2 4.3
2017-Oct-19 19:30N 71°05' E 025°09'2 4.7
2017-Oct-19 18:59N 71°03' E 025°09'2 3.7
2017-Oct-19 18:28N 71°01' E 025°07'0 0.6
2017-Oct-19 17:58N 71°02' E 025°07'0 0.7
2017-Oct-19 17:29N 71°02' E 025°08'0 0.7
2017-Oct-19 17:00N 71°02' E 025°08'1 1.1
2017-Oct-19 16:29N 71°03' E 025°08'0 0.5
2017-Oct-19 15:59N 71°03' E 025°09'0 0.2
2017-Oct-19 15:29N 71°03' E 025°09'0 0.3
2017-Oct-19 14:59N 71°03' E 025°08'0 0.5
2017-Oct-19 14:29N 71°03' E 025°07'0 0.3
2017-Oct-19 14:00N 71°03' E 025°07'0 0.3
2017-Oct-19 13:30N 71°03' E 025°07'0 0.4
2017-Oct-19 13:00N 71°04' E 025°07'0 0.8
2017-Oct-19 12:30N 71°04' E 025°07'3 5.0
2017-Oct-19 11:59N 71°06' E 025°10'2 4.9
2017-Oct-19 11:30N 71°09' E 025°11'1 2.9
2017-Oct-19 11:00N 71°10' E 025°11'3 5.5
2017-Oct-19 10:30N 71°08' E 025°07'2 4.7
2017-Oct-19 10:00N 71°06' E 025°03'2 3.9
2017-Oct-19 09:29N 71°04' E 025°05'2 4.3
2017-Oct-19 09:01N 71°02' E 025°07'1 2.5
2017-Oct-19 08:30N 71°01' E 025°10'2 3.6
2017-Oct-19 08:00N 71°01' E 025°16'2 4.7
2017-Oct-19 07:30N 70°60' E 025°22'5 9.6
2017-Oct-19 07:00N 70°56' E 025°32'4 7.6
2017-Oct-19 06:29N 70°56' E 025°44'4 7.4
2017-Oct-19 05:59N 70°57' E 025°55'3 6.8
2017-Oct-19 05:30N 70°58' E 026°03'1 1.0
2017-Oct-19 05:00N 70°58' E 026°02'1 1.7
2017-Oct-19 04:28N 70°59' E 026°02'0 0.0
2017-Oct-19 03:52N 70°59' E 026°02'0 0.0
2017-Oct-19 03:25N 70°59' E 026°02'0 0.0
2017-Oct-19 02:52N 70°59' E 026°02'0 0.0
2017-Oct-19 02:07N 70°59' E 026°02'0 0.0
2017-Oct-19 01:52N 70°59' E 026°02'0 0.0
2017-Oct-19 01:22N 70°59' E 026°02'0 0.0
2017-Oct-19 00:55N 70°59' E 026°02'0 0.0
2017-Oct-19 00:28N 70°59' E 026°02'0 0.0
2017-Oct-18 23:43N 70°59' E 026°02'0 0.0
2017-Oct-18 23:04N 70°59' E 026°02'0 0.1
2017-Oct-18 22:58N 70°59' E 026°02'0 0.6
2017-Oct-18 22:29N 70°59' E 026°01'0 0.2
2017-Oct-18 22:00N 70°59' E 026°02'0 0.0
2017-Oct-18 21:27N 70°59' E 026°02'0 0.4
2017-Oct-18 20:56N 70°59' E 026°02'0 0.0
2017-Oct-18 20:29N 70°59' E 026°02'1 2.6
2017-Oct-18 20:00N 70°58' E 026°00'1 1.7
2017-Oct-18 19:29N 70°59' E 025°58'0 0.0
2017-Oct-18 18:59N 70°59' E 025°58'0 0.0
2017-Oct-18 18:29N 70°59' E 025°58'0 0.0
2017-Oct-18 17:59N 70°59' E 025°58'0 0.0
2017-Oct-18 17:29N 70°59' E 025°58'0 0.0
2017-Oct-18 16:59N 70°59' E 025°58'0 0.0
2017-Oct-18 16:29N 70°59' E 025°58'0 0.0
2017-Oct-18 15:59N 70°59' E 025°58'0 0.0
2017-Oct-18 15:29N 70°59' E 025°58'0 0.0
2017-Oct-18 14:59N 70°59' E 025°58'0 0.0
2017-Oct-18 13:59N 70°59' E 025°58'0 0.0
2017-Oct-18 13:29N 70°59' E 025°58'0 0.0
2017-Oct-18 12:59N 70°59' E 025°58'0 0.0
2017-Oct-18 12:29N 70°59' E 025°58'0 0.0
2017-Oct-18 11:59N 70°59' E 025°58'0 0.0
2017-Oct-18 11:29N 70°59' E 025°58'0 0.0
2017-Oct-18 10:59N 70°59' E 025°58'0 0.0
2017-Oct-18 10:29N 70°59' E 025°58'0 0.0
2017-Oct-18 09:59N 70°59' E 025°58'0 0.0
2017-Oct-18 09:09N 70°59' E 025°58'0 0.0
2017-Oct-18 09:00N 70°59' E 025°58'0 0.0
2017-Oct-18 08:30N 70°59' E 025°58'1 1.9
2017-Oct-18 07:59N 70°58' E 026°01'0 0.2
2017-Oct-18 06:47N 70°58' E 026°01'2 6.6
2017-Oct-18 06:30N 70°58' E 026°07'4 0.2
2017-Oct-17 06:01N 70°59' E 026°19'6 1.3
2017-Oct-17 01:32N 70°58' E 026°02'  
2017-Oct-14 00:12N 70°58' E 026°01'1 3.9
2017-Oct-14 00:00N 70°58' E 026°03'3 6.1
2017-Oct-13 23:30N 70°58' E 026°12'4 0.1
2017-Oct-11 23:14N 70°58' E 026°02'1 2.8
2017-Oct-11 22:58N 70°58' E 026°04'12 3.2
2017-Oct-11 19:19N 71°07' E 026°28'12 0.5
2017-Oct-10 19:08N 70°58' E 026°01'312.1
2017-Oct-10 18:52N 70°56' E 025°53'2411.7
2017-Oct-10 16:51N 70°60' E 024°41'2 6.5
2017-Oct-10 16:30N 70°59' E 024°34'  
Track history (hours):
 
Tides and Currents Weather Stations Pressure Air Temp Water Temp Dewpoint Dewpoint Depression Visibility Wind Speed Wind Dir Waves Ship Positions

Nybakken

Last reported at 2017-Oct-20 15:59 UTC. Time now 2017-Oct-20 16:13 UTC.
Position N 70°59' E 026°02'.

Length 9 m.

Type: Fishing. MMSI: 257305340.

Date/timePositionNaut miles runAvg speedWind from/ knotsBaromVisibWave heightAir tempDewpointWater temp
2017-Oct-20 15:59N 70°59' E 026°02'2 4.8
2017-Oct-20 15:30N 70°57' E 025°57'5 9.0
2017-Oct-20 15:00N 70°56' E 025°44'4 8.8
2017-Oct-20 14:30N 70°56' E 025°31'9 8.9
2017-Oct-20 13:30N 71°03' E 025°13'3 5.5
2017-Oct-20 12:59N 71°06' E 025°12'2 3.6
2017-Oct-20 12:29N 71°07' E 025°12'0 0.6
2017-Oct-20 12:00N 71°08' E 025°11'0 0.4
2017-Oct-20 11:30N 71°08' E 025°10'0 0.7
2017-Oct-20 11:00N 71°07' E 025°10'0 0.8
2017-Oct-20 10:30N 71°07' E 025°10'0 1.0
2017-Oct-20 10:00N 71°06' E 025°10'0 0.8
2017-Oct-20 09:30N 71°06' E 025°10'0 0.7
2017-Oct-20 08:59N 71°06' E 025°09'0 1.0
2017-Oct-20 08:30N 71°05' E 025°08'0 0.9
2017-Oct-20 08:00N 71°05' E 025°08'0 0.6
2017-Oct-20 07:30N 71°05' E 025°08'0 0.9
2017-Oct-20 07:00N 71°04' E 025°07'0 0.9
2017-Oct-20 06:30N 71°04' E 025°07'1 1.1
2017-Oct-20 06:00N 71°04' E 025°07'2 3.5
2017-Oct-20 05:30N 71°05' E 025°12'1 1.1
2017-Oct-20 04:59N 71°05' E 025°14'0 0.6
2017-Oct-20 04:30N 71°05' E 025°13'0 0.7
2017-Oct-20 03:58N 71°05' E 025°13'0 0.7
2017-Oct-20 03:30N 71°06' E 025°12'0 0.7
2017-Oct-20 03:00N 71°06' E 025°11'0 0.7
2017-Oct-20 02:29N 71°06' E 025°11'0 0.7
2017-Oct-20 02:00N 71°06' E 025°10'1 2.6
2017-Oct-20 01:30N 71°08' E 025°11'0 0.9
2017-Oct-20 01:00N 71°08' E 025°11'0 0.8
2017-Oct-20 00:30N 71°09' E 025°11'0 0.6
2017-Oct-20 00:00N 71°09' E 025°11'0 0.7
2017-Oct-19 23:29N 71°09' E 025°11'0 0.9
2017-Oct-19 23:00N 71°10' E 025°12'0 0.7
2017-Oct-19 22:29N 71°10' E 025°11'1 1.8
2017-Oct-19 21:59N 71°09' E 025°10'0 0.7
2017-Oct-19 21:29N 71°09' E 025°09'1 1.3
2017-Oct-19 20:59N 71°09' E 025°10'0 0.6
2017-Oct-19 20:29N 71°10' E 025°11'2 4.2
2017-Oct-19 19:59N 71°08' E 025°10'2 4.3
2017-Oct-19 19:30N 71°05' E 025°09'2 4.7
2017-Oct-19 18:59N 71°03' E 025°09'2 3.7
2017-Oct-19 18:28N 71°01' E 025°07'0 0.6
2017-Oct-19 17:58N 71°02' E 025°07'0 0.7
2017-Oct-19 17:29N 71°02' E 025°08'0 0.7
2017-Oct-19 17:00N 71°02' E 025°08'1 1.1
2017-Oct-19 16:29N 71°03' E 025°08'0 0.5
2017-Oct-19 15:59N 71°03' E 025°09'0 0.2
2017-Oct-19 15:29N 71°03' E 025°09'0 0.3
2017-Oct-19 14:59N 71°03' E 025°08'0 0.5
2017-Oct-19 14:29N 71°03' E 025°07'0 0.3
2017-Oct-19 14:00N 71°03' E 025°07'0 0.3
2017-Oct-19 13:30N 71°03' E 025°07'0 0.4
2017-Oct-19 13:00N 71°04' E 025°07'0 0.8
2017-Oct-19 12:30N 71°04' E 025°07'3 5.0
2017-Oct-19 11:59N 71°06' E 025°10'2 4.9
2017-Oct-19 11:30N 71°09' E 025°11'1 2.9
2017-Oct-19 11:00N 71°10' E 025°11'3 5.5
2017-Oct-19 10:30N 71°08' E 025°07'2 4.7
2017-Oct-19 10:00N 71°06' E 025°03'2 3.9
2017-Oct-19 09:29N 71°04' E 025°05'2 4.3
2017-Oct-19 09:01N 71°02' E 025°07'1 2.5
2017-Oct-19 08:30N 71°01' E 025°10'2 3.6
2017-Oct-19 08:00N 71°01' E 025°16'2 4.7
2017-Oct-19 07:30N 70°60' E 025°22'5 9.6
2017-Oct-19 07:00N 70°56' E 025°32'4 7.6
2017-Oct-19 06:29N 70°56' E 025°44'4 7.4
2017-Oct-19 05:59N 70°57' E 025°55'3 6.8
2017-Oct-19 05:30N 70°58' E 026°03'1 1.0
2017-Oct-19 05:00N 70°58' E 026°02'1 1.7
2017-Oct-19 04:28N 70°59' E 026°02'0 0.0
2017-Oct-19 03:52N 70°59' E 026°02'0 0.0
2017-Oct-19 03:25N 70°59' E 026°02'0 0.0
2017-Oct-19 02:52N 70°59' E 026°02'0 0.0
2017-Oct-19 02:07N 70°59' E 026°02'0 0.0
2017-Oct-19 01:52N 70°59' E 026°02'0 0.0
2017-Oct-19 01:22N 70°59' E 026°02'0 0.0
2017-Oct-19 00:55N 70°59' E 026°02'0 0.0
2017-Oct-19 00:28N 70°59' E 026°02'0 0.0
2017-Oct-18 23:43N 70°59' E 026°02'0 0.0
2017-Oct-18 23:04N 70°59' E 026°02'0 0.1
2017-Oct-18 22:58N 70°59' E 026°02'0 0.6
2017-Oct-18 22:29N 70°59' E 026°01'0 0.2
2017-Oct-18 22:00N 70°59' E 026°02'0 0.0
2017-Oct-18 21:27N 70°59' E 026°02'0 0.4
2017-Oct-18 20:56N 70°59' E 026°02'0 0.0
2017-Oct-18 20:29N 70°59' E 026°02'1 2.6
2017-Oct-18 20:00N 70°58' E 026°00'1 1.7
2017-Oct-18 19:29N 70°59' E 025°58'0 0.0
2017-Oct-18 18:59N 70°59' E 025°58'0 0.0
2017-Oct-18 18:29N 70°59' E 025°58'0 0.0
2017-Oct-18 17:59N 70°59' E 025°58'0 0.0
2017-Oct-18 17:29N 70°59' E 025°58'0 0.0
2017-Oct-18 16:59N 70°59' E 025°58'0 0.0
2017-Oct-18 16:29N 70°59' E 025°58'0 0.0
2017-Oct-18 15:59N 70°59' E 025°58'0 0.0
2017-Oct-18 15:29N 70°59' E 025°58'0 0.0
2017-Oct-18 14:59N 70°59' E 025°58'0 0.0
2017-Oct-18 13:59N 70°59' E 025°58'0 0.0
2017-Oct-18 13:29N 70°59' E 025°58'0 0.0
2017-Oct-18 12:59N 70°59' E 025°58'0 0.0
2017-Oct-18 12:29N 70°59' E 025°58'0 0.0
2017-Oct-18 11:59N 70°59' E 025°58'0 0.0
2017-Oct-18 11:29N 70°59' E 025°58'0 0.0
2017-Oct-18 10:59N 70°59' E 025°58'0 0.0
2017-Oct-18 10:29N 70°59' E 025°58'0 0.0
2017-Oct-18 09:59N 70°59' E 025°58'0 0.0
2017-Oct-18 09:09N 70°59' E 025°58'0 0.0
2017-Oct-18 09:00N 70°59' E 025°58'0 0.0
2017-Oct-18 08:30N 70°59' E 025°58'1 1.9
2017-Oct-18 07:59N 70°58' E 026°01'0 0.2
2017-Oct-18 06:47N 70°58' E 026°01'2 6.6
2017-Oct-18 06:30N 70°58' E 026°07'4 0.2
2017-Oct-17 06:01N 70°59' E 026°19'6 1.3
2017-Oct-17 01:32N 70°58' E 026°02'  
2017-Oct-14 00:12N 70°58' E 026°01'1 3.9
2017-Oct-14 00:00N 70°58' E 026°03'3 6.1
2017-Oct-13 23:30N 70°58' E 026°12'4 0.1
2017-Oct-11 23:14N 70°58' E 026°02'1 2.8
2017-Oct-11 22:58N 70°58' E 026°04'12 3.2
2017-Oct-11 19:19N 71°07' E 026°28'12 0.5
2017-Oct-10 19:08N 70°58' E 026°01'312.1
2017-Oct-10 18:52N 70°56' E 025°53'2411.7
2017-Oct-10 16:51N 70°60' E 024°41'2 6.5
2017-Oct-10 16:30N 70°59' E 024°34'  

Dump ship's entire track history